Time;durP1;ratioP1;P1;durP2;ratioP2;P2;SDS_P1;SDS_P2;PMS_P1;PMS_P2;Temp;Humidity;BMP_temperature;BMP_pressure;BME280_temperature;BME280_humidity;BME280_pressure;Samples;Min_cycle;Max_cycle;Signal;HPM_P1;HPM_P2
2022/02/11 00:07:59;;;;;;;3.77;3.20;;;;;;;7.33;79.31;99123.22;5077576;27;103400;-70
2022/02/11 00:10:28;;;;;;;8.30;5.17;;;;;;;7.24;79.20;99118.44;5094700;27;103309;-70
2022/02/11 00:12:56;;;;;;;4.47;3.93;;;;;;;7.11;80.39;99120.03;5092741;27;102658;-71
2022/02/11 00:15:37;;;;;;;7.80;5.13;;;;;;;7.09;79.49;99114.00;5096503;27;102765;-71
2022/02/11 00:18:07;;;;;;;4.90;3.83;;;;;;;7.24;79.09;99112.38;5073898;27;104706;-71
2022/02/11 00:20:36;;;;;;;4.17;3.77;;;;;;;7.33;78.65;99110.09;5073585;27;104438;-71
2022/02/11 00:23:06;;;;;;;4.43;3.50;;;;;;;7.37;78.82;99116.88;5091554;27;102592;-71
2022/02/11 00:25:37;;;;;;;6.20;4.60;;;;;;;7.36;79.10;99119.59;5073970;27;102660;-71
2022/02/11 00:31:14;;;;;;;4.53;4.00;;;;;;;7.28;79.08;99117.38;5061473;27;103274;-71
2022/02/11 00:33:44;;;;;;;5.33;4.43;;;;;;;7.19;78.90;99111.72;5080111;27;102732;-71
2022/02/11 00:36:15;;;;;;;5.77;4.00;;;;;;;7.26;78.57;99108.72;5072321;27;103609;-71
2022/02/11 00:39:01;;;;;;;4.00;3.70;;;;;;;7.31;77.83;99106.69;5091050;27;104060;-71
2022/02/11 01:04:10;;;;;;;6.57;5.57;;;;;;;6.97;78.47;99118.09;5091664;27;103169;-71
2022/02/11 01:06:40;;;;;;;8.00;5.67;;;;;;;7.06;78.51;99132.56;5093635;27;102550;-71
2022/02/11 01:09:12;;;;;;;7.80;5.10;;;;;;;6.92;78.26;99124.53;5091115;27;102661;-71
2022/02/11 01:11:46;;;;;;;8.00;5.23;;;;;;;6.95;78.12;99124.38;5095000;27;104054;-71
2022/02/11 01:14:14;;;;;;;8.77;4.90;;;;;;;6.98;77.68;99126.84;5074605;27;103220;-71
2022/02/11 01:16:46;;;;;;;10.27;6.27;;;;;;;7.01;77.75;99118.81;5060616;27;102745;-70
2022/02/11 01:19:22;;;;;;;7.10;5.23;;;;;;;6.91;78.29;99122.81;5063412;27;104173;-70
2022/02/11 01:22:00;;;;;;;7.33;5.23;;;;;;;6.94;78.04;99112.16;5078644;27;103644;-70
2022/02/11 01:24:49;;;;;;;6.00;5.30;;;;;;;6.91;77.51;99114.94;5084323;27;103192;-70
2022/02/11 01:27:26;;;;;;;7.03;4.63;;;;;;;6.97;76.45;99117.25;5080432;27;102942;-70
2022/02/11 01:30:18;;;;;;;6.17;4.43;;;;;;;7.02;75.62;99115.22;5085579;27;102622;-70
2022/02/11 01:33:06;;;;;;;6.43;4.67;;;;;;;6.99;75.11;99110.13;5077626;27;102990;-70
2022/02/11 01:35:46;;;;;;;5.10;4.40;;;;;;;6.99;75.00;99104.88;5079276;27;103229;-70
2022/02/11 01:38:25;;;;;;;6.57;4.87;;;;;;;6.83;74.45;99106.59;5055750;27;102683;-70
2022/02/11 01:41:56;;;;;;;4.80;3.67;;;;;;;6.95;74.88;99098.09;5079206;27;102643;-70
2022/02/11 01:44:12;;;;;;;4.07;3.70;;;;;;;6.80;74.42;99104.97;5079300;27;103221;-70
2022/02/11 01:50:00;;;;;;;5.17;3.87;;;;;;;6.87;73.87;99100.28;5080174;27;102625;-71
2022/02/11 01:52:41;;;;;;;5.00;4.03;;;;;;;6.75;73.83;99106.13;5079263;27;103925;-71
2022/02/11 01:55:25;;;;;;;5.97;3.70;;;;;;;6.70;73.67;99109.00;5077985;27;104185;-70
2022/02/11 01:58:22;;;;;;;5.50;3.90;;;;;;;6.68;73.77;99110.00;5077068;27;103185;-71
2022/02/11 02:01:08;;;;;;;4.33;3.80;;;;;;;6.73;74.33;99108.00;5079333;27;102699;-70
2022/02/11 02:12:22;;;;;;;5.60;4.20;;;;;;;6.37;79.34;99105.44;5053675;27;102973;-71
2022/02/11 02:23:51;;;;;;;4.53;4.00;;;;;;;6.36;80.65;99096.69;5062287;27;102662;-71
2022/02/11 02:26:31;;;;;;;5.30;4.73;;;;;;;6.25;81.79;99096.38;5079904;27;102683;-71
2022/02/11 02:29:49;;;;;;;5.67;3.83;;;;;;;6.37;81.96;99101.00;5078424;27;103252;-71
2022/02/11 02:37:54;;;;;;;4.50;4.10;;;;;;;6.43;82.56;99110.34;5053429;27;104183;-71
2022/02/11 02:57:25;;;;;;;4.87;4.13;;;;;;;6.02;87.47;99135.97;5076537;27;102464;-70
2022/02/11 03:00:12;;;;;;;5.30;4.43;;;;;;;5.80;89.26;99146.59;5057542;27;102686;-70
2022/02/11 04:20:44;;;;;;;1.37;1.27;;;;;;;3.47;97.53;99343.56;5076763;27;103796;-71
2022/02/11 04:56:44;;;;;;;2.90;2.57;;;;;;;3.62;97.85;99421.41;5080841;27;103178;-71
2022/02/11 05:02:02;;;;;;;3.97;3.33;;;;;;;3.48;97.51;99423.66;5068418;27;102645;-70
2022/02/11 05:04:33;;;;;;;3.73;3.43;;;;;;;3.58;97.95;99435.50;5087919;27;103249;-70
2022/02/11 05:07:03;;;;;;;3.47;3.17;;;;;;;3.50;97.88;99437.50;5057582;27;103206;-71
2022/02/11 05:09:32;;;;;;;3.30;3.00;;;;;;;3.47;97.40;99448.06;5077438;27;102712;-69
2022/02/11 05:12:07;;;;;;;3.03;2.73;;;;;;;3.68;97.66;99447.34;5082625;27;104189;-70
2022/02/11 05:14:35;;;;;;;3.53;3.23;;;;;;;3.72;97.33;99446.34;5084660;27;103240;-70
2022/02/11 05:17:10;;;;;;;3.70;3.10;;;;;;;3.67;96.16;99458.72;5088428;27;103230;-70
2022/02/11 05:19:41;;;;;;;4.00;3.60;;;;;;;3.62;97.01;99458.00;5084598;27;102567;-70
2022/02/11 05:22:08;;;;;;;3.00;2.80;;;;;;;3.74;96.47;99470.66;5080297;27;102771;-70
2022/02/11 05:24:36;;;;;;;3.60;3.30;;;;;;;3.63;97.16;99475.41;5084021;27;103422;-70
2022/02/11 05:27:06;;;;;;;4.10;3.80;;;;;;;3.50;97.82;99471.47;5080377;27;103337;-64
2022/02/11 05:29:34;;;;;;;3.03;2.83;;;;;;;3.31;97.23;99473.78;5062654;27;102715;-76
2022/02/11 05:32:02;;;;;;;3.33;3.13;;;;;;;3.24;97.46;99476.63;5081000;27;102787;-77
2022/02/11 05:34:30;;;;;;;3.90;3.50;;;;;;;3.51;98.95;99475.78;5078194;27;104608;-76
2022/02/11 05:36:58;;;;;;;2.80;2.60;;;;;;;3.57;97.91;99480.81;5077539;27;102641;-76
2022/02/11 05:39:26;;;;;;;3.10;2.80;;;;;;;3.55;96.61;99482.63;5082377;27;103186;-77
2022/02/11 05:41:54;;;;;;;3.43;3.13;;;;;;;3.58;96.83;99494.75;5077871;27;102582;-77
2022/02/11 05:44:23;;;;;;;3.13;2.73;;;;;;;3.62;97.45;99499.81;5080091;27;104155;-78
2022/02/11 05:46:51;;;;;;;3.57;3.27;;;;;;;3.62;97.83;99515.47;5064652;27;104428;-77
2022/02/11 05:49:21;;;;;;;3.20;2.90;;;;;;;3.67;97.96;99505.78;5075120;27;102621;-77
2022/02/11 05:51:49;;;;;;;3.27;2.73;;;;;;;3.63;96.47;99519.81;5082740;27;103841;-77
2022/02/11 05:54:17;;;;;;;5.13;3.17;;;;;;;3.51;96.41;99523.66;5073969;27;103648;-78
2022/02/11 05:56:45;;;;;;;3.03;2.77;;;;;;;3.63;97.50;99532.88;5079278;27;103184;-77
2022/02/11 05:59:13;;;;;;;3.33;2.97;;;;;;;3.67;97.18;99536.25;5079838;27;102647;-77
2022/02/11 06:01:42;;;;;;;3.30;3.07;;;;;;;3.61;97.21;99542.53;5077891;27;104051;-77
2022/02/11 06:04:10;;;;;;;3.10;2.90;;;;;;;3.66;97.46;99552.84;5079194;27;103193;-77
2022/02/11 06:06:41;;;;;;;3.57;3.27;;;;;;;3.68;96.93;99554.50;5077551;27;103131;-77
2022/02/11 06:09:09;;;;;;;3.00;2.70;;;;;;;3.67;96.45;99550.19;5055851;27;102565;-77
2022/02/11 06:11:37;;;;;;;3.80;3.40;;;;;;;3.58;96.60;99545.25;5058887;27;102641;-77
2022/02/11 06:14:06;;;;;;;4.47;3.00;;;;;;;3.77;96.96;99555.97;5073757;27;103974;-78
2022/02/11 06:16:34;;;;;;;3.20;2.90;;;;;;;3.79;96.68;99555.00;5056837;27;103203;-78
2022/02/11 06:19:04;;;;;;;4.67;3.30;;;;;;;3.84;96.48;99557.50;5055650;27;102726;-77
2022/02/11 06:21:34;;;;;;;3.67;3.37;;;;;;;3.71;95.30;99566.63;5060347;27;102688;-78
2022/02/11 06:24:02;;;;;;;3.90;3.40;;;;;;;3.68;95.61;99572.78;5073791;27;103152;-77
2022/02/11 06:26:31;;;;;;;6.20;3.70;;;;;;;3.57;96.11;99574.00;5078220;27;103186;-78
2022/02/11 06:28:59;;;;;;;3.60;3.27;;;;;;;3.68;95.49;99572.78;5075266;27;102637;-77
2022/02/11 06:31:28;;;;;;;4.20;3.80;;;;;;;3.54;95.11;99574.13;5069269;27;102714;-77
2022/02/11 06:33:56;;;;;;;4.43;3.30;;;;;;;3.65;95.62;99578.13;5048239;27;104085;-76
2022/02/11 06:36:26;;;;;;;4.37;3.97;;;;;;;3.52;94.23;99587.25;5082905;27;103340;-76
2022/02/11 06:38:54;;;;;;;3.10;2.80;;;;;;;3.50;95.46;99594.28;5076766;27;102633;-76
2022/02/11 06:41:22;;;;;;;3.20;2.90;;;;;;;3.60;94.84;99605.28;5076436;27;102704;-76
2022/02/11 06:43:50;;;;;;;4.03;3.53;;;;;;;3.50;92.60;99612.56;5062245;27;103945;-76
2022/02/11 06:46:21;;;;;;;4.93;3.47;;;;;;;3.47;94.07;99620.50;5081903;27;103264;-77
2022/02/11 06:48:49;;;;;;;3.67;2.70;;;;;;;3.45;93.68;99622.28;5081067;27;102495;-77
2022/02/11 06:51:17;;;;;;;4.47;2.70;;;;;;;3.54;94.08;99632.47;5078584;27;103750;-76
2022/02/11 06:53:47;;;;;;;2.60;2.30;;;;;;;3.50;93.39;99634.31;5084441;27;103275;-77
2022/02/11 06:56:15;;;;;;;2.63;2.40;;;;;;;3.36;93.22;99644.31;5081234;27;103175;-77
2022/02/11 06:58:44;;;;;;;3.80;3.10;;;;;;;3.14;93.28;99658.88;5055729;27;102693;-77
2022/02/11 07:01:12;;;;;;;4.80;4.10;;;;;;;3.12;94.40;99659.78;5078210;27;103561;-77
2022/02/11 07:03:40;;;;;;;4.67;4.23;;;;;;;3.06;94.58;99670.41;5076795;27;104164;-77
2022/02/11 07:06:08;;;;;;;3.53;3.20;;;;;;;2.97;96.39;99668.91;5076003;27;103210;-77
2022/02/11 07:08:37;;;;;;;4.83;3.73;;;;;;;3.09;95.80;99680.78;5080217;27;102633;-77
2022/02/11 07:11:07;;;;;;;5.57;4.57;;;;;;;2.84;95.50;99689.25;5075570;27;103819;-77
2022/02/11 07:13:35;;;;;;;5.33;3.80;;;;;;;3.06;95.63;99691.31;5081560;27;103416;-77
2022/02/11 07:16:03;;;;;;;4.20;3.30;;;;;;;3.11;94.97;99694.66;5078571;27;103288;-77
2022/02/11 07:18:31;;;;;;;6.90;4.30;;;;;;;3.08;93.83;99697.34;5075899;27;102520;-77
2022/02/11 07:20:59;;;;;;;5.57;3.67;;;;;;;3.21;94.49;99707.41;5073510;27;103028;-76
2022/02/11 07:23:27;;;;;;;4.13;3.70;;;;;;;3.21;94.61;99711.78;5060491;27;104063;-77
2022/02/11 07:25:55;;;;;;;4.70;4.00;;;;;;;3.27;94.13;99716.84;5074041;27;103211;-76
2022/02/11 07:28:24;;;;;;;4.03;3.60;;;;;;;3.24;94.38;99724.75;5080345;27;102615;-76
2022/02/11 07:30:53;;;;;;;3.07;2.77;;;;;;;3.26;93.69;99730.78;5065785;27;102547;-76
2022/02/11 07:33:21;;;;;;;3.90;3.13;;;;;;;3.33;94.19;99737.56;5077933;27;105441;-75
2022/02/11 07:35:49;;;;;;;4.20;2.87;;;;;;;3.38;93.98;99740.91;5075266;27;103289;-76
2022/02/11 07:38:17;;;;;;;4.27;3.37;;;;;;;3.32;93.88;99752.38;5080216;27;102773;-76
2022/02/11 07:40:45;;;;;;;5.60;3.70;;;;;;;3.21;93.96;99767.47;5058656;27;104050;-76
2022/02/11 07:43:13;;;;;;;4.07;3.00;;;;;;;3.31;94.06;99773.34;5071534;27;103895;-75
2022/02/11 07:46:02;;;;;;;5.93;3.97;;;;;;;3.61;93.22;99774.25;5070743;27;103188;-76
2022/02/11 07:48:30;;;;;;;4.30;3.20;;;;;;;3.87;92.09;99777.88;5056990;27;102663;-76
2022/02/11 07:51:00;;;;;;;4.30;3.73;;;;;;;4.05;91.37;99785.19;5076017;27;102573;-75
2022/02/11 07:53:28;;;;;;;4.60;3.33;;;;;;;4.54;89.57;99786.34;5058548;27;104182;-75
2022/02/11 07:55:56;;;;;;;4.73;3.83;;;;;;;4.50;89.24;99796.03;5070076;27;103184;-75
2022/02/11 07:58:26;;;;;;;3.70;3.40;;;;;;;4.61;88.32;99798.31;5070437;27;102624;-76
2022/02/11 08:00:55;;;;;;;4.90;4.00;;;;;;;4.60;88.98;99799.25;5055686;27;103124;-75
2022/02/11 08:03:25;;;;;;;7.70;3.67;;;;;;;5.01;89.20;99803.16;5058827;27;103280;-75
2022/02/11 08:05:56;;;;;;;3.80;3.30;;;;;;;5.42;85.73;99813.13;5077430;27;103245;-75
2022/02/11 08:08:27;;;;;;;7.73;4.67;;;;;;;5.59;85.93;99823.03;5056830;27;102698;-74
2022/02/11 08:10:56;;;;;;;3.60;3.30;;;;;;;5.52;84.27;99830.25;5054302;27;102683;-74
2022/02/11 08:13:25;;;;;;;4.60;3.10;;;;;;;5.32;84.24;99837.06;5072429;27;103362;-74
2022/02/11 08:15:53;;;;;;;5.63;3.27;;;;;;;5.26;84.44;99836.38;5057298;27;103358;-74
2022/02/11 08:18:21;;;;;;;3.87;2.90;;;;;;;5.57;85.48;99835.34;5074210;27;102847;-74
2022/02/11 08:21:10;;;;;;;4.20;3.40;;;;;;;5.71;83.03;99851.44;5071940;27;102817;-74
2022/02/11 08:23:38;;;;;;;6.33;3.20;;;;;;;5.73;82.98;99852.25;5074391;27;103269;-74
2022/02/11 08:26:07;;;;;;;5.63;2.97;;;;;;;5.88;81.07;99851.75;5077505;27;103265;-74
2022/02/11 08:28:40;;;;;;;7.60;2.30;;;;;;;6.11;81.08;99867.53;5082013;27;102678;-78
2022/02/11 08:31:08;;;;;;;5.17;2.67;;;;;;;5.55;82.69;99874.72;5064935;27;103878;-78
2022/02/11 08:33:36;;;;;;;5.03;2.77;;;;;;;5.49;83.61;99881.94;5073762;27;103249;-79
2022/02/11 08:36:05;;;;;;;5.53;2.60;;;;;;;4.69;84.32;99885.34;5077558;27;103180;-78
2022/02/11 08:38:34;;;;;;;4.17;3.20;;;;;;;4.75;83.23;99874.69;5074321;27;102559;-79
2022/02/11 08:41:03;;;;;;;3.83;2.80;;;;;;;4.88;82.88;99886.50;5067862;27;103932;-79
2022/02/11 08:43:31;;;;;;;4.50;2.77;;;;;;;5.34;80.27;99880.66;5069441;27;103637;-80
2022/02/11 08:46:00;;;;;;;3.00;2.40;;;;;;;5.83;80.01;99882.50;5081537;27;102661;-81
2022/02/11 08:48:28;;;;;;;3.67;2.83;;;;;;;6.54;77.74;99872.06;5060776;27;102597;-81
2022/02/11 08:50:56;;;;;;;3.07;2.53;;;;;;;6.92;75.59;99881.09;5062871;27;103734;-81
2022/02/11 08:53:31;;;;;;;4.10;2.80;;;;;;;12.31;58.08;99870.69;5078386;27;103282;-81
2022/02/11 08:56:05;;;;;;;5.13;2.60;;;;;;;9.99;59.30;99884.72;5077312;27;103351;-81
2022/02/11 08:58:35;;;;;;;3.80;2.67;;;;;;;9.72;63.54;99906.28;5075913;27;102605;-81
2022/02/11 09:01:04;;;;;;;6.17;2.50;;;;;;;10.01;61.55;99906.59;5075333;27;102672;-81
2022/02/11 09:03:34;;;;;;;3.53;2.30;;;;;;;8.47;63.92;99913.16;5078036;27;102803;-81
2022/02/11 09:06:04;;;;;;;4.30;2.70;;;;;;;7.45;68.04;99919.28;5075320;27;103338;-81
2022/02/11 09:08:33;;;;;;;5.87;2.70;;;;;;;7.48;69.32;99921.78;5060121;27;102607;-81
2022/02/11 09:11:05;;;;;;;5.17;2.63;;;;;;;6.82;69.24;99937.56;5055378;27;102776;-81
2022/02/11 09:13:34;;;;;;;4.33;2.40;;;;;;;6.82;68.79;99945.44;5079829;27;104073;-81
2022/02/11 09:16:03;;;;;;;2.80;2.40;;;;;;;7.09;70.50;99949.63;5082051;27;103192;-81
2022/02/11 09:18:32;;;;;;;6.53;3.57;;;;;;;7.22;68.86;99947.38;5079108;27;102599;-82
2022/02/11 09:21:02;;;;;;;3.90;2.50;;;;;;;7.41;69.24;99962.38;5077861;27;104260;-82
2022/02/11 09:23:30;;;;;;;4.57;2.63;;;;;;;7.62;66.76;99954.53;5076130;27;104025;-82
2022/02/11 09:26:00;;;;;;;6.67;2.47;;;;;;;7.94;68.02;99946.19;5077437;27;103218;-82
2022/02/11 09:28:30;;;;;;;6.03;3.23;;;;;;;7.84;67.01;99963.25;5082128;27;102798;-82
2022/02/11 09:30:58;;;;;;;5.03;2.77;;;;;;;7.83;68.39;99957.13;5070408;27;102567;-82
2022/02/11 09:33:26;;;;;;;5.83;2.80;;;;;;;7.53;67.34;99958.41;5079245;27;104071;-82
2022/02/11 09:35:54;;;;;;;4.60;2.47;;;;;;;7.51;68.14;99954.97;5080868;27;103217;-83
2022/02/11 09:38:23;;;;;;;3.57;1.90;;;;;;;7.26;68.91;99956.88;5083993;27;102594;-82
2022/02/11 09:40:53;;;;;;;8.77;3.00;;;;;;;7.37;67.68;99960.78;5073745;27;102633;-83
2022/02/11 09:43:24;;;;;;;5.13;2.80;;;;;;;7.25;68.12;99957.78;5060240;27;104166;-83
2022/02/11 09:45:56;;;;;;;4.20;3.10;;;;;;;7.44;66.62;99962.25;5080307;27;103338;-83
2022/02/11 09:48:23;;;;;;;4.87;2.80;;;;;;;7.34;67.97;99968.78;5062082;27;102849;-83
2022/02/11 09:50:55;;;;;;;5.20;2.20;;;;;;;7.50;65.93;99964.63;5058367;27;103727;-83
2022/02/11 09:53:27;;;;;;;3.40;2.10;;;;;;;7.32;66.19;99969.78;5081772;27;103365;-82
2022/02/11 09:55:56;;;;;;;4.90;2.47;;;;;;;7.28;67.10;99962.91;5082852;27;103188;-82
2022/02/11 09:58:24;;;;;;;3.80;2.00;;;;;;;7.53;66.23;99963.66;5070174;27;102555;-82
2022/02/11 10:00:54;;;;;;;7.47;2.00;;;;;;;7.77;65.60;99964.44;5082240;27;104290;-82
2022/02/11 10:03:23;;;;;;;3.33;1.80;;;;;;;7.41;66.49;99975.50;5058419;27;103168;-82
2022/02/11 10:05:57;;;;;;;5.47;1.93;;;;;;;7.58;65.49;99977.47;5078239;27;103402;-74
2022/02/11 10:08:26;;;;;;;4.43;2.00;;;;;;;7.90;65.55;99982.28;5060202;27;102689;-74
2022/02/11 10:10:58;;;;;;;5.83;2.07;;;;;;;7.93;65.24;99984.81;5078237;27;102595;-74
2022/02/11 10:13:28;;;;;;;3.43;1.97;;;;;;;8.13;63.67;99986.59;5062079;27;105009;-74
2022/02/11 10:15:59;;;;;;;4.00;2.10;;;;;;;8.26;63.88;99992.19;5062116;27;104264;-74
2022/02/11 10:18:29;;;;;;;5.50;2.20;;;;;;;8.34;63.07;99993.59;5079582;27;102613;-74
2022/02/11 10:21:00;;;;;;;5.27;2.10;;;;;;;8.17;62.94;100001.34;5059730;27;102744;-74
2022/02/11 10:23:30;;;;;;;3.10;2.10;;;;;;;8.03;63.98;100006.31;5077496;27;102626;-74
2022/02/11 10:26:06;;;;;;;6.03;1.83;;;;;;;8.28;64.00;100011.47;5063283;27;103978;-81
2022/02/11 10:28:37;;;;;;;4.37;2.00;;;;;;;7.89;63.66;100013.91;5078910;27;102553;-82
2022/02/11 10:31:19;;;;;;;3.30;1.90;;;;;;;7.88;64.37;100018.34;5077963;27;103869;-81
2022/02/11 10:33:49;;;;;;;3.93;2.10;;;;;;;7.84;64.98;100013.25;5078759;27;103946;-82
2022/02/11 10:36:19;;;;;;;5.63;2.40;;;;;;;8.21;64.47;100012.59;5074625;27;103229;-82
2022/02/11 10:39:10;;;;;;;3.00;1.80;;;;;;;8.15;63.35;100011.94;5059440;27;102702;-82
2022/02/11 10:41:41;;;;;;;2.73;2.00;;;;;;;8.08;61.90;100020.16;5077808;27;102649;-82
2022/02/11 10:44:13;;;;;;;5.07;2.73;;;;;;;7.50;62.42;100024.25;5079365;27;103356;-82
2022/02/11 10:46:44;;;;;;;5.50;2.27;;;;;;;7.90;62.59;100032.28;5061873;27;103241;-80
2022/02/11 10:49:13;;;;;;;4.53;2.17;;;;;;;8.18;61.81;100032.00;5077998;27;102699;-82
2022/02/11 10:51:43;;;;;;;3.50;1.93;;;;;;;8.51;62.40;100027.97;5073150;27;103839;-81
2022/02/11 10:54:25;;;;;;;4.70;2.60;;;;;;;8.14;63.46;100030.41;5078803;27;103283;-82
2022/02/11 10:56:55;;;;;;;4.57;2.17;;;;;;;7.80;65.09;100036.22;5072305;27;103155;-82
2022/02/11 10:59:28;;;;;;;3.87;2.23;;;;;;;8.17;63.53;100027.66;5078806;27;102577;-82
2022/02/11 11:02:00;;;;;;;7.87;2.47;;;;;;;8.04;62.52;100029.09;5079053;27;103606;-82
2022/02/11 11:04:29;;;;;;;6.00;2.63;;;;;;;7.96;63.01;100025.94;5077026;27;103374;-82
2022/02/11 11:06:58;;;;;;;4.60;2.30;;;;;;;7.77;63.65;100022.34;5058227;27;104243;-82
2022/02/11 11:09:28;;;;;;;4.07;2.30;;;;;;;7.48;65.94;100018.22;5059721;27;102747;-82
2022/02/11 11:12:00;;;;;;;3.43;2.17;;;;;;;7.94;64.71;100020.72;5075495;27;103609;-75
2022/02/11 11:14:28;;;;;;;6.20;2.00;;;;;;;7.93;62.67;100019.00;5073405;27;103255;-75
2022/02/11 11:17:01;;;;;;;4.37;2.40;;;;;;;7.70;65.61;100024.34;5075864;27;103382;-75
2022/02/11 11:19:34;;;;;;;6.53;2.60;;;;;;;7.46;64.71;100020.91;5073763;27;102632;-82
2022/02/11 11:22:15;;;;;;;5.20;2.23;;;;;;;7.42;65.44;100028.97;5070347;27;102559;-82
2022/02/11 11:24:49;;;;;;;3.83;2.37;;;;;;;7.52;63.79;100031.16;5073652;27;104578;-82
2022/02/11 11:27:39;;;;;;;8.27;2.97;;;;;;;7.49;65.30;100036.53;5066863;27;104224;-75
2022/02/11 11:30:27;;;;;;;3.47;2.10;;;;;;;7.53;64.26;100040.78;5074287;27;102628;-82
2022/02/11 11:33:24;;;;;;;4.10;1.97;;;;;;;7.66;63.37;100040.31;5057620;27;102781;-82
2022/02/11 11:36:12;;;;;;;2.80;2.07;;;;;;;7.73;62.18;100049.66;5071638;27;103494;-82
2022/02/11 11:38:44;;;;;;;3.70;2.00;;;;;;;7.05;64.82;100065.44;5053482;27;104214;-82
2022/02/11 11:41:19;;;;;;;3.07;1.90;;;;;;;7.15;65.89;100059.81;5075721;27;102766;-81
2022/02/11 11:43:50;;;;;;;4.37;2.10;;;;;;;7.32;65.48;100070.53;5079860;27;102725;-82
2022/02/11 11:46:34;;;;;;;4.47;1.93;;;;;;;7.99;63.12;100054.75;5056980;27;103775;-75
2022/02/11 11:49:10;;;;;;;3.17;2.10;;;;;;;8.25;61.49;100064.22;5056957;27;103241;-81
2022/02/11 11:52:03;;;;;;;4.67;2.37;;;;;;;7.85;61.64;100060.56;5073951;27;102701;-80
2022/02/11 11:54:31;;;;;;;2.67;1.70;;;;;;;7.57;63.11;100065.19;5057023;27;104289;-75
2022/02/11 11:57:01;;;;;;;4.03;1.70;;;;;;;7.77;61.40;100051.28;5056557;27;104799;-80
2022/02/11 11:59:36;;;;;;;7.07;2.37;;;;;;;7.53;60.66;100053.94;5075203;27;103203;-80
2022/02/11 12:02:06;;;;;;;3.80;2.20;;;;;;;7.59;63.12;100047.59;5073666;27;102804;-76
2022/02/11 12:04:49;;;;;;;3.33;2.00;;;;;;;7.66;62.67;100049.06;5074729;27;103155;-77
2022/02/11 12:07:19;;;;;;;4.43;2.10;;;;;;;7.81;61.66;100042.31;5056008;27;103910;-77
2022/02/11 12:09:49;;;;;;;3.60;1.90;;;;;;;7.77;63.87;100051.28;5075902;27;103201;-77
2022/02/11 12:12:19;;;;;;;2.93;1.83;;;;;;;7.80;63.12;100048.53;5054369;27;102695;-77
2022/02/11 12:14:52;;;;;;;4.70;2.37;;;;;;;7.71;63.34;100049.75;5079227;27;102696;-77
2022/02/11 12:17:21;;;;;;;5.00;2.40;;;;;;;7.50;62.92;100045.31;5075587;27;103297;-77
2022/02/11 12:19:52;;;;;;;4.43;2.50;;;;;;;7.53;64.02;100053.94;5072265;27;103207;-77
2022/02/11 12:22:22;;;;;;;5.10;2.33;;;;;;;7.59;63.80;100053.69;5072276;27;102539;-78
2022/02/11 12:27:39;;;;;;;2.80;1.90;;;;;;;7.21;63.50;100051.69;5075442;27;103276;-77
2022/02/11 12:30:15;;;;;;;4.53;2.53;;;;;;;7.36;62.05;100064.25;5060912;27;104309;-77
2022/02/11 12:32:44;;;;;;;2.67;1.97;;;;;;;7.22;63.57;100061.28;5062413;27;102681;-78
2022/02/11 12:35:16;;;;;;;5.40;2.47;;;;;;;7.46;63.32;100057.72;5079943;27;102615;-77
2022/02/11 12:37:47;;;;;;;5.77;2.40;;;;;;;7.39;62.62;100061.50;5058686;27;103985;-78
2022/02/11 12:40:19;;;;;;;6.33;2.13;;;;;;;7.68;62.41;100056.88;5055639;27;104137;-79
2022/02/11 12:42:49;;;;;;;5.63;2.10;;;;;;;7.45;62.57;100061.28;5057638;27;102693;-77
2022/02/11 12:45:24;;;;;;;4.03;2.27;;;;;;;7.74;61.63;100059.28;5074666;27;104191;-79
2022/02/11 12:47:53;;;;;;;8.07;2.33;;;;;;;7.87;61.90;100052.59;5078770;27;103514;-77
2022/02/11 12:50:28;;;;;;;8.77;2.10;;;;;;;8.42;62.18;100052.06;5075169;27;104193;-75
2022/02/11 12:52:57;;;;;;;6.93;2.30;;;;;;;7.75;61.26;100053.13;5076674;27;102650;-77
2022/02/11 12:55:25;;;;;;;3.47;2.10;;;;;;;7.76;62.20;100054.81;5076184;27;102680;-77
2022/02/11 12:57:57;;;;;;;3.73;1.80;;;;;;;7.84;61.96;100045.69;5078778;27;103888;-77
2022/02/11 13:00:30;;;;;;;3.50;2.10;;;;;;;7.49;62.86;100049.69;5058351;27;103939;-77
2022/02/11 13:03:01;;;;;;;8.63;1.60;;;;;;;7.79;62.85;100049.44;5073717;27;102790;-77
2022/02/11 13:05:36;;;;;;;4.90;2.33;;;;;;;7.44;62.65;100050.78;5056189;27;104429;-77
2022/02/11 13:08:07;;;;;;;2.90;1.83;;;;;;;7.51;63.72;100044.41;5057979;27;104411;-77
2022/02/11 13:10:36;;;;;;;4.00;2.23;;;;;;;7.82;62.09;100044.03;5081664;27;103172;-77
2022/02/11 13:13:06;;;;;;;5.03;2.00;;;;;;;7.61;60.80;100047.53;5078717;27;102681;-77
2022/02/11 13:15:36;;;;;;;3.27;2.10;;;;;;;7.71;61.31;100043.63;5080486;27;102757;-78
2022/02/11 13:18:10;;;;;;;3.13;1.73;;;;;;;8.27;60.80;100044.84;5077799;27;103954;-77
2022/02/11 13:20:47;;;;;;;5.20;1.90;;;;;;;8.57;59.66;100042.66;5078029;27;103035;-78
2022/02/11 13:23:21;;;;;;;3.60;2.03;;;;;;;8.40;59.26;100040.75;5074210;27;102725;-78
2022/02/11 13:25:50;;;;;;;6.50;2.20;;;;;;;8.59;59.41;100038.19;5079208;27;103959;-77
2022/02/11 13:28:21;;;;;;;4.00;2.00;;;;;;;8.37;58.05;100038.25;5059379;27;104559;-77
2022/02/11 13:30:55;;;;;;;5.93;2.20;;;;;;;8.40;58.57;100040.75;5076897;27;103396;-77
2022/02/11 13:33:25;;;;;;;4.90;2.13;;;;;;;8.49;58.70;100040.38;5074814;27;102801;-77
2022/02/11 13:35:57;;;;;;;5.70;2.67;;;;;;;8.67;57.73;100047.47;5075516;27;102895;-77
2022/02/11 13:38:28;;;;;;;4.77;2.57;;;;;;;8.96;58.67;100042.69;5058350;27;104679;-77
2022/02/11 13:40:57;;;;;;;2.50;1.50;;;;;;;8.72;57.87;100040.25;5058929;27;103174;-77
2022/02/11 13:43:26;;;;;;;4.43;2.00;;;;;;;8.40;58.28;100038.13;5062932;27;102770;-77
2022/02/11 13:45:56;;;;;;;6.70;1.87;;;;;;;8.73;58.34;100049.84;5080910;27;102753;-77
2022/02/11 13:48:27;;;;;;;4.50;2.10;;;;;;;8.83;57.59;100046.81;5075647;27;103759;-78
2022/02/11 13:51:00;;;;;;;3.63;2.13;;;;;;;8.56;59.48;100054.97;5057773;27;103979;-77
2022/02/11 13:53:30;;;;;;;3.87;2.00;;;;;;;8.09;58.94;100048.19;5067369;27;102855;-78
2022/02/11 13:55:59;;;;;;;3.10;2.30;;;;;;;8.04;58.83;100060.69;5073939;27;103867;-77
2022/02/11 13:58:29;;;;;;;3.70;1.80;;;;;;;7.75;59.32;100053.13;5075168;27;103292;-78
2022/02/11 14:00:57;;;;;;;3.90;1.60;;;;;;;8.05;58.62;100046.63;5059923;27;103203;-78
2022/02/11 14:03:28;;;;;;;4.97;2.47;;;;;;;8.06;58.12;100059.69;5056645;27;103209;-78
2022/02/11 14:06:01;;;;;;;3.23;1.70;;;;;;;8.21;58.96;100060.84;5077116;27;102795;-79
2022/02/11 14:08:43;;;;;;;4.67;2.10;;;;;;;8.46;57.18;100058.94;5059697;27;103808;-78
2022/02/11 14:11:13;;;;;;;4.90;1.93;;;;;;;8.38;59.03;100060.19;5073428;27;103162;-78
2022/02/11 14:13:41;;;;;;;3.37;1.80;;;;;;;8.26;58.17;100065.91;5076965;27;104338;-78
2022/02/11 14:16:09;;;;;;;3.13;2.00;;;;;;;7.82;58.38;100070.34;5074004;27;102697;-78
2022/02/11 14:18:39;;;;;;;4.57;1.70;;;;;;;7.72;59.28;100074.28;5066339;27;103278;-78
2022/02/11 14:21:11;;;;;;;7.73;2.97;;;;;;;7.55;60.16;100081.03;5076345;27;103277;-78
2022/02/11 14:23:39;;;;;;;5.83;2.70;;;;;;;7.75;60.39;100068.91;5057937;27;102782;-78
2022/02/11 14:26:07;;;;;;;4.10;2.23;;;;;;;7.55;59.67;100078.41;5075594;27;103816;-77
2022/02/11 14:28:36;;;;;;;4.27;2.17;;;;;;;7.88;59.26;100078.88;5073782;27;103283;-78
2022/02/11 14:31:08;;;;;;;3.80;2.03;;;;;;;7.78;58.72;100084.53;5063668;27;104209;-79
2022/02/11 14:33:37;;;;;;;3.73;1.60;;;;;;;7.58;58.48;100091.44;5075155;27;102666;-78
2022/02/11 14:36:08;;;;;;;2.43;1.50;;;;;;;7.53;58.50;100103.91;5072716;27;102629;-78
2022/02/11 14:38:38;;;;;;;5.37;1.80;;;;;;;7.27;59.04;100109.28;5078481;27;103287;-78
2022/02/11 14:43:54;;;;;;;2.90;1.80;;;;;;;7.17;61.21;100107.03;5074337;27;102935;-79
2022/02/11 14:46:22;;;;;;;2.93;1.80;;;;;;;7.14;61.60;100113.28;5057054;27;102746;-78
2022/02/11 14:48:53;;;;;;;3.17;2.00;;;;;;;7.27;61.02;100109.28;5077450;27;104594;-79
2022/02/11 14:51:21;;;;;;;4.40;2.10;;;;;;;7.21;61.14;100104.25;5056612;27;103010;-79
2022/02/11 14:53:53;;;;;;;2.97;2.00;;;;;;;7.35;60.42;100107.25;5056613;27;102847;-77
2022/02/11 14:56:21;;;;;;;3.03;1.47;;;;;;;7.47;60.40;100106.75;5057931;27;102790;-78
2022/02/11 14:58:49;;;;;;;3.93;2.00;;;;;;;7.25;58.58;100111.09;5058095;27;104473;-79
2022/02/11 15:01:17;;;;;;;3.00;1.60;;;;;;;7.13;58.33;100113.34;5056696;27;103220;-77
2022/02/11 15:03:45;;;;;;;3.50;1.90;;;;;;;7.04;57.26;100111.03;5078062;27;102695;-80
2022/02/11 15:06:14;;;;;;;3.07;1.60;;;;;;;6.82;57.54;100119.66;5078639;27;103781;-76